Svyataya Anna — UUCV — position and weather

sailwx.info

Track history (hours):
 
Tides and Currents Weather Stations Pressure Air Temp Water Temp Dewpoint Dewpoint Depression Visibility Wind Speed Wind Dir Waves Ship Positions

Svyataya Anna

Last reported at 2015-Apr-23 05:33 UTC. Time now 2015-Jun-30 19:45 UTC.
Position N 44°24' E 035°26'.
Warning: this ship's position is months out of date.

Length 93 m; draft 1.7 m.

MMSI: 272068800.

Date/timePositionNaut miles runAvg speedWind from/ knotsBaromVisibWave heightAir tempDewpointWater temp
2015-Apr-23 05:33N 44°24' E 035°26'6 5.6
2015-Apr-23 04:31N 44°22' E 035°19'11 5.8
2015-Apr-23 02:33N 44°17' E 035°04'5 5.1
2015-Apr-23 01:29N 44°17' E 034°57'5 5.0
2015-Apr-23 00:31N 44°16' E 034°50'5 4.8
2015-Apr-22 23:32N 44°16' E 034°43'5 5.2
2015-Apr-22 22:33N 44°16' E 034°36'5 5.0
2015-Apr-22 21:32N 44°16' E 034°29'5 5.0
2015-Apr-22 20:33N 44°16' E 034°22'4 3.9
2015-Apr-22 19:33N 44°17' E 034°17'4 4.2
2015-Apr-22 18:33N 44°16' E 034°12'6 4.5
2015-Apr-22 17:15N 44°16' E 034°04'  
2015-Apr-14 14:32N 46°36' E 031°44'5 4.0
2015-Apr-14 13:12N 46°35' E 031°52'3 4.6
2015-Apr-14 12:33N 46°34' E 031°56'7 0.7
2015-Apr-14 01:29N 46°30' E 032°04'0 0.0
2015-Apr-14 00:20N 46°30' E 032°04'0 0.1
2015-Apr-13 20:24N 46°30' E 032°05'  
Track history (hours):
 
Tides and Currents Weather Stations Pressure Air Temp Water Temp Dewpoint Dewpoint Depression Visibility Wind Speed Wind Dir Waves Ship Positions

Svyataya Anna

Last reported at 2015-Apr-23 05:33 UTC. Time now 2015-Jun-30 19:45 UTC.
Position N 44°24' E 035°26'.
Warning: this ship's position is months out of date.

Length 93 m; draft 1.7 m.

MMSI: 272068800.

Date/timePositionNaut miles runAvg speedWind from/ knotsBaromVisibWave heightAir tempDewpointWater temp
2015-Apr-23 05:33N 44°24' E 035°26'6 5.6
2015-Apr-23 04:31N 44°22' E 035°19'11 5.8
2015-Apr-23 02:33N 44°17' E 035°04'5 5.1
2015-Apr-23 01:29N 44°17' E 034°57'5 5.0
2015-Apr-23 00:31N 44°16' E 034°50'5 4.8
2015-Apr-22 23:32N 44°16' E 034°43'5 5.2
2015-Apr-22 22:33N 44°16' E 034°36'5 5.0
2015-Apr-22 21:32N 44°16' E 034°29'5 5.0
2015-Apr-22 20:33N 44°16' E 034°22'4 3.9
2015-Apr-22 19:33N 44°17' E 034°17'4 4.2
2015-Apr-22 18:33N 44°16' E 034°12'6 4.5
2015-Apr-22 17:15N 44°16' E 034°04'  
2015-Apr-14 14:32N 46°36' E 031°44'5 4.0
2015-Apr-14 13:12N 46°35' E 031°52'3 4.6
2015-Apr-14 12:33N 46°34' E 031°56'7 0.7
2015-Apr-14 01:29N 46°30' E 032°04'0 0.0
2015-Apr-14 00:20N 46°30' E 032°04'0 0.1
2015-Apr-13 20:24N 46°30' E 032°05'  

Dump ship's entire track history